sensor_id;sensor_type;location;lat;lon;timestamp;P1;durP1;ratioP1;P2;durP2;ratioP2
74074;SDS011;62428;51.412;5.432;2023-02-28T00:00:46;6.20;;;3.00;;
74074;SDS011;62428;51.412;5.432;2023-02-28T00:03:11;9.63;;;3.45;;
74074;SDS011;62428;51.412;5.432;2023-02-28T00:05:37;6.67;;;3.03;;
74074;SDS011;62428;51.412;5.432;2023-02-28T00:08:02;7.43;;;2.97;;
74074;SDS011;62428;51.412;5.432;2023-02-28T00:10:29;6.68;;;3.25;;
74074;SDS011;62428;51.412;5.432;2023-02-28T00:12:58;5.80;;;3.23;;
74074;SDS011;62428;51.412;5.432;2023-02-28T00:15:26;11.32;;;3.47;;
74074;SDS011;62428;51.412;5.432;2023-02-28T00:17:52;6.03;;;3.38;;
74074;SDS011;62428;51.412;5.432;2023-02-28T00:20:17;7.50;;;3.50;;
74074;SDS011;62428;51.412;5.432;2023-02-28T00:22:44;6.63;;;3.55;;
74074;SDS011;62428;51.412;5.432;2023-02-28T00:25:12;5.50;;;2.90;;
74074;SDS011;62428;51.412;5.432;2023-02-28T00:27:40;7.35;;;3.38;;
74074;SDS011;62428;51.412;5.432;2023-02-28T00:30:07;5.90;;;3.20;;
74074;SDS011;62428;51.412;5.432;2023-02-28T00:32:35;7.63;;;3.28;;
74074;SDS011;62428;51.412;5.432;2023-02-28T00:35:01;8.73;;;3.07;;
74074;SDS011;62428;51.412;5.432;2023-02-28T00:37:27;7.57;;;3.42;;
74074;SDS011;62428;51.412;5.432;2023-02-28T00:39:52;8.00;;;3.37;;
74074;SDS011;62428;51.412;5.432;2023-02-28T00:42:17;7.90;;;3.60;;
74074;SDS011;62428;51.412;5.432;2023-02-28T00:44:43;8.00;;;3.70;;
74074;SDS011;62428;51.412;5.432;2023-02-28T00:47:08;7.00;;;3.63;;
74074;SDS011;62428;51.412;5.432;2023-02-28T00:49:34;9.87;;;3.27;;
74074;SDS011;62428;51.412;5.432;2023-02-28T00:51:59;5.97;;;3.65;;
74074;SDS011;62428;51.412;5.432;2023-02-28T00:54:25;8.67;;;4.03;;
74074;SDS011;62428;51.412;5.432;2023-02-28T00:56:50;9.63;;;3.93;;
74074;SDS011;62428;51.412;5.432;2023-02-28T00:59:16;8.97;;;3.40;;
74074;SDS011;62428;51.412;5.432;2023-02-28T01:01:43;8.13;;;4.13;;
74074;SDS011;62428;51.412;5.432;2023-02-28T01:04:09;6.13;;;3.42;;
74074;SDS011;62428;51.412;5.432;2023-02-28T01:06:35;7.20;;;3.40;;
74074;SDS011;62428;51.412;5.432;2023-02-28T01:09:01;12.25;;;3.78;;
74074;SDS011;62428;51.412;5.432;2023-02-28T01:11:28;6.75;;;3.55;;
74074;SDS011;62428;51.412;5.432;2023-02-28T01:13:54;8.93;;;3.80;;
74074;SDS011;62428;51.412;5.432;2023-02-28T01:16:19;8.43;;;3.42;;
74074;SDS011;62428;51.412;5.432;2023-02-28T01:18:44;5.67;;;3.30;;
74074;SDS011;62428;51.412;5.432;2023-02-28T01:21:11;6.43;;;3.43;;
74074;SDS011;62428;51.412;5.432;2023-02-28T01:23:39;9.63;;;3.65;;
74074;SDS011;62428;51.412;5.432;2023-02-28T01:26:06;9.23;;;3.75;;
74074;SDS011;62428;51.412;5.432;2023-02-28T01:28:32;10.20;;;3.77;;
74074;SDS011;62428;51.412;5.432;2023-02-28T01:30:58;8.30;;;3.50;;
74074;SDS011;62428;51.412;5.432;2023-02-28T01:33:24;10.35;;;3.67;;
74074;SDS011;62428;51.412;5.432;2023-02-28T01:35:56;9.95;;;4.03;;
74074;SDS011;62428;51.412;5.432;2023-02-28T01:38:23;5.78;;;3.25;;
74074;SDS011;62428;51.412;5.432;2023-02-28T01:40:48;8.97;;;3.60;;
74074;SDS011;62428;51.412;5.432;2023-02-28T01:43:19;7.00;;;3.30;;
74074;SDS011;62428;51.412;5.432;2023-02-28T01:45:51;8.38;;;3.92;;
74074;SDS011;62428;51.412;5.432;2023-02-28T01:48:17;7.37;;;3.47;;
74074;SDS011;62428;51.412;5.432;2023-02-28T01:50:45;6.18;;;3.15;;
74074;SDS011;62428;51.412;5.432;2023-02-28T01:53:16;7.63;;;2.95;;
74074;SDS011;62428;51.412;5.432;2023-02-28T01:55:45;6.25;;;3.47;;
74074;SDS011;62428;51.412;5.432;2023-02-28T01:58:15;9.48;;;3.60;;
74074;SDS011;62428;51.412;5.432;2023-02-28T02:00:41;6.97;;;3.03;;
74074;SDS011;62428;51.412;5.432;2023-02-28T02:03:11;8.63;;;3.63;;
74074;SDS011;62428;51.412;5.432;2023-02-28T02:05:39;8.43;;;3.65;;
74074;SDS011;62428;51.412;5.432;2023-02-28T02:08:06;7.53;;;3.80;;
74074;SDS011;62428;51.412;5.432;2023-02-28T02:10:36;7.28;;;3.25;;
74074;SDS011;62428;51.412;5.432;2023-02-28T02:19:00;6.80;;;3.45;;
74074;SDS011;62428;51.412;5.432;2023-02-28T02:27:33;6.78;;;2.92;;
74074;SDS011;62428;51.412;5.432;2023-02-28T02:33:42;8.20;;;3.00;;
74074;SDS011;62428;51.412;5.432;2023-02-28T02:36:38;8.67;;;3.67;;
74074;SDS011;62428;51.412;5.432;2023-02-28T02:44:27;7.00;;;3.45;;
74074;SDS011;62428;51.412;5.432;2023-02-28T02:47:10;10.02;;;3.80;;
74074;SDS011;62428;51.412;5.432;2023-02-28T02:49:40;6.83;;;3.37;;
74074;SDS011;62428;51.412;5.432;2023-02-28T02:52:11;8.90;;;3.50;;
74074;SDS011;62428;51.412;5.432;2023-02-28T02:54:40;9.25;;;3.10;;
74074;SDS011;62428;51.412;5.432;2023-02-28T02:57:11;9.32;;;3.60;;
74074;SDS011;62428;51.412;5.432;2023-02-28T02:59:49;7.03;;;3.05;;
74074;SDS011;62428;51.412;5.432;2023-02-28T03:02:17;6.73;;;3.13;;
74074;SDS011;62428;51.412;5.432;2023-02-28T03:04:43;7.13;;;2.92;;
74074;SDS011;62428;51.412;5.432;2023-02-28T03:07:14;8.80;;;2.90;;
74074;SDS011;62428;51.412;5.432;2023-02-28T03:09:39;4.27;;;2.60;;
74074;SDS011;62428;51.412;5.432;2023-02-28T03:12:06;9.13;;;3.10;;
74074;SDS011;62428;51.412;5.432;2023-02-28T03:14:43;6.30;;;2.50;;
74074;SDS011;62428;51.412;5.432;2023-02-28T03:17:18;7.03;;;2.85;;
74074;SDS011;62428;51.412;5.432;2023-02-28T03:22:46;6.78;;;3.20;;
74074;SDS011;62428;51.412;5.432;2023-02-28T03:25:59;5.93;;;2.93;;
74074;SDS011;62428;51.412;5.432;2023-02-28T03:28:37;4.68;;;2.65;;
74074;SDS011;62428;51.412;5.432;2023-02-28T03:33:39;5.93;;;3.30;;
74074;SDS011;62428;51.412;5.432;2023-02-28T03:36:13;7.53;;;2.70;;
74074;SDS011;62428;51.412;5.432;2023-02-28T03:38:48;6.50;;;3.15;;
74074;SDS011;62428;51.412;5.432;2023-02-28T03:41:51;11.03;;;2.90;;
74074;SDS011;62428;51.412;5.432;2023-02-28T03:44:21;6.90;;;2.42;;
74074;SDS011;62428;51.412;5.432;2023-02-28T03:46:58;5.20;;;2.83;;
74074;SDS011;62428;51.412;5.432;2023-02-28T03:49:30;9.20;;;3.40;;
74074;SDS011;62428;51.412;5.432;2023-02-28T03:52:00;7.22;;;3.47;;
74074;SDS011;62428;51.412;5.432;2023-02-28T03:54:30;7.07;;;3.00;;
74074;SDS011;62428;51.412;5.432;2023-02-28T03:57:12;7.22;;;2.72;;
74074;SDS011;62428;51.412;5.432;2023-02-28T03:59:56;8.88;;;3.13;;
74074;SDS011;62428;51.412;5.432;2023-02-28T04:02:25;9.00;;;3.67;;
74074;SDS011;62428;51.412;5.432;2023-02-28T04:04:50;7.20;;;3.30;;
74074;SDS011;62428;51.412;5.432;2023-02-28T04:07:16;8.63;;;2.80;;
74074;SDS011;62428;51.412;5.432;2023-02-28T04:09:42;10.77;;;3.33;;
74074;SDS011;62428;51.412;5.432;2023-02-28T04:12:07;6.63;;;2.90;;
74074;SDS011;62428;51.412;5.432;2023-02-28T04:14:33;6.85;;;3.35;;
74074;SDS011;62428;51.412;5.432;2023-02-28T04:16:58;8.23;;;3.13;;
74074;SDS011;62428;51.412;5.432;2023-02-28T04:19:24;12.20;;;3.33;;
74074;SDS011;62428;51.412;5.432;2023-02-28T04:21:50;6.53;;;3.17;;
74074;SDS011;62428;51.412;5.432;2023-02-28T04:24:21;8.77;;;3.25;;
74074;SDS011;62428;51.412;5.432;2023-02-28T04:26:51;9.57;;;3.42;;
74074;SDS011;62428;51.412;5.432;2023-02-28T04:29:19;4.73;;;2.97;;
74074;SDS011;62428;51.412;5.432;2023-02-28T04:31:46;6.35;;;2.58;;
74074;SDS011;62428;51.412;5.432;2023-02-28T04:34:12;6.25;;;2.80;;
74074;SDS011;62428;51.412;5.432;2023-02-28T04:36:37;9.00;;;2.77;;
74074;SDS011;62428;51.412;5.432;2023-02-28T04:39:03;8.00;;;2.60;;
74074;SDS011;62428;51.412;5.432;2023-02-28T04:41:29;6.32;;;2.72;;
74074;SDS011;62428;51.412;5.432;2023-02-28T04:43:54;5.70;;;2.83;;
74074;SDS011;62428;51.412;5.432;2023-02-28T04:46:21;6.57;;;2.40;;
74074;SDS011;62428;51.412;5.432;2023-02-28T04:48:47;5.10;;;2.72;;
74074;SDS011;62428;51.412;5.432;2023-02-28T04:51:13;7.23;;;2.93;;
74074;SDS011;62428;51.412;5.432;2023-02-28T04:53:40;5.15;;;2.90;;
74074;SDS011;62428;51.412;5.432;2023-02-28T04:56:07;6.27;;;2.67;;
74074;SDS011;62428;51.412;5.432;2023-02-28T04:58:36;7.25;;;2.58;;
74074;SDS011;62428;51.412;5.432;2023-02-28T05:01:04;7.50;;;2.80;;
74074;SDS011;62428;51.412;5.432;2023-02-28T05:03:37;7.85;;;2.67;;
74074;SDS011;62428;51.412;5.432;2023-02-28T05:06:06;7.47;;;2.70;;
74074;SDS011;62428;51.412;5.432;2023-02-28T05:08:35;6.78;;;2.60;;
74074;SDS011;62428;51.412;5.432;2023-02-28T05:11:01;5.50;;;2.43;;
74074;SDS011;62428;51.412;5.432;2023-02-28T05:13:27;7.63;;;2.90;;
74074;SDS011;62428;51.412;5.432;2023-02-28T05:15:53;6.30;;;3.00;;
74074;SDS011;62428;51.412;5.432;2023-02-28T05:18:18;6.67;;;2.87;;
74074;SDS011;62428;51.412;5.432;2023-02-28T05:20:43;8.63;;;3.10;;
74074;SDS011;62428;51.412;5.432;2023-02-28T05:23:11;5.20;;;2.78;;
74074;SDS011;62428;51.412;5.432;2023-02-28T05:25:37;6.05;;;2.65;;
74074;SDS011;62428;51.412;5.432;2023-02-28T05:28:03;8.60;;;2.70;;
74074;SDS011;62428;51.412;5.432;2023-02-28T05:30:29;6.07;;;2.50;;
74074;SDS011;62428;51.412;5.432;2023-02-28T05:32:55;10.50;;;2.90;;
74074;SDS011;62428;51.412;5.432;2023-02-28T05:35:20;6.73;;;2.30;;
74074;SDS011;62428;51.412;5.432;2023-02-28T05:37:46;6.70;;;2.67;;
74074;SDS011;62428;51.412;5.432;2023-02-28T05:40:11;6.03;;;2.65;;
74074;SDS011;62428;51.412;5.432;2023-02-28T05:42:38;11.90;;;3.08;;
74074;SDS011;62428;51.412;5.432;2023-02-28T05:45:03;5.55;;;2.47;;
74074;SDS011;62428;51.412;5.432;2023-02-28T05:47:30;8.77;;;3.17;;
74074;SDS011;62428;51.412;5.432;2023-02-28T05:49:56;7.33;;;2.87;;
74074;SDS011;62428;51.412;5.432;2023-02-28T05:52:21;5.90;;;2.53;;
74074;SDS011;62428;51.412;5.432;2023-02-28T05:54:47;6.20;;;2.90;;
74074;SDS011;62428;51.412;5.432;2023-02-28T05:57:12;7.80;;;2.70;;
74074;SDS011;62428;51.412;5.432;2023-02-28T05:59:38;8.18;;;2.75;;
74074;SDS011;62428;51.412;5.432;2023-02-28T06:02:05;6.93;;;2.60;;
74074;SDS011;62428;51.412;5.432;2023-02-28T06:04:35;5.40;;;2.35;;
74074;SDS011;62428;51.412;5.432;2023-02-28T06:07:01;7.07;;;2.50;;
74074;SDS011;62428;51.412;5.432;2023-02-28T06:09:26;8.07;;;3.00;;
74074;SDS011;62428;51.412;5.432;2023-02-28T06:11:52;4.57;;;2.50;;
74074;SDS011;62428;51.412;5.432;2023-02-28T06:14:18;6.28;;;2.35;;
74074;SDS011;62428;51.412;5.432;2023-02-28T06:16:44;6.23;;;2.47;;
74074;SDS011;62428;51.412;5.432;2023-02-28T06:19:10;4.95;;;2.40;;
74074;SDS011;62428;51.412;5.432;2023-02-28T06:21:36;10.60;;;3.67;;
74074;SDS011;62428;51.412;5.432;2023-02-28T06:24:02;9.25;;;2.88;;
74074;SDS011;62428;51.412;5.432;2023-02-28T06:26:28;6.25;;;2.60;;
74074;SDS011;62428;51.412;5.432;2023-02-28T06:28:54;6.40;;;2.90;;
74074;SDS011;62428;51.412;5.432;2023-02-28T06:31:20;4.57;;;2.50;;
74074;SDS011;62428;51.412;5.432;2023-02-28T06:33:46;5.68;;;2.65;;
74074;SDS011;62428;51.412;5.432;2023-02-28T06:36:13;5.27;;;2.57;;
74074;SDS011;62428;51.412;5.432;2023-02-28T06:38:39;5.63;;;2.13;;
74074;SDS011;62428;51.412;5.432;2023-02-28T06:41:06;6.55;;;2.90;;
74074;SDS011;62428;51.412;5.432;2023-02-28T06:43:33;8.02;;;2.30;;
74074;SDS011;62428;51.412;5.432;2023-02-28T06:46:02;8.10;;;2.53;;
74074;SDS011;62428;51.412;5.432;2023-02-28T06:48:30;4.50;;;2.20;;
74074;SDS011;62428;51.412;5.432;2023-02-28T06:51:06;4.88;;;2.13;;
74074;SDS011;62428;51.412;5.432;2023-02-28T06:53:33;4.80;;;1.97;;
74074;SDS011;62428;51.412;5.432;2023-02-28T06:55:59;4.53;;;1.98;;
74074;SDS011;62428;51.412;5.432;2023-02-28T06:58:28;7.75;;;2.20;;
74074;SDS011;62428;51.412;5.432;2023-02-28T07:00:54;4.10;;;1.80;;
74074;SDS011;62428;51.412;5.432;2023-02-28T07:03:19;5.60;;;2.33;;
74074;SDS011;62428;51.412;5.432;2023-02-28T07:05:45;3.27;;;1.77;;
74074;SDS011;62428;51.412;5.432;2023-02-28T07:08:10;5.45;;;1.77;;
74074;SDS011;62428;51.412;5.432;2023-02-28T07:10:39;3.58;;;1.60;;
74074;SDS011;62428;51.412;5.432;2023-02-28T07:13:05;4.35;;;1.60;;
74074;SDS011;62428;51.412;5.432;2023-02-28T07:15:32;3.80;;;1.50;;
74074;SDS011;62428;51.412;5.432;2023-02-28T07:17:57;4.50;;;1.33;;
74074;SDS011;62428;51.412;5.432;2023-02-28T07:20:23;10.63;;;2.80;;
74074;SDS011;62428;51.412;5.432;2023-02-28T07:22:49;7.03;;;1.20;;
74074;SDS011;62428;51.412;5.432;2023-02-28T07:25:21;3.05;;;1.60;;
74074;SDS011;62428;51.412;5.432;2023-02-28T07:27:51;4.10;;;1.70;;
74074;SDS011;62428;51.412;5.432;2023-02-28T07:30:16;5.03;;;1.60;;
74074;SDS011;62428;51.412;5.432;2023-02-28T07:32:42;5.78;;;1.60;;
74074;SDS011;62428;51.412;5.432;2023-02-28T07:35:08;5.57;;;1.60;;
74074;SDS011;62428;51.412;5.432;2023-02-28T07:37:33;4.00;;;1.70;;
74074;SDS011;62428;51.412;5.432;2023-02-28T07:40:05;4.07;;;1.70;;
74074;SDS011;62428;51.412;5.432;2023-02-28T07:42:33;3.20;;;1.67;;
74074;SDS011;62428;51.412;5.432;2023-02-28T07:45:03;7.35;;;1.42;;
74074;SDS011;62428;51.412;5.432;2023-02-28T07:47:31;5.32;;;1.75;;
74074;SDS011;62428;51.412;5.432;2023-02-28T07:49:57;5.13;;;1.42;;
74074;SDS011;62428;51.412;5.432;2023-02-28T07:52:22;5.13;;;1.23;;
74074;SDS011;62428;51.412;5.432;2023-02-28T07:54:51;3.80;;;1.10;;
74074;SDS011;62428;51.412;5.432;2023-02-28T07:57:17;1.93;;;1.00;;
74074;SDS011;62428;51.412;5.432;2023-02-28T07:59:42;3.97;;;1.35;;
74074;SDS011;62428;51.412;5.432;2023-02-28T08:02:12;3.83;;;1.05;;
74074;SDS011;62428;51.412;5.432;2023-02-28T08:04:38;2.80;;;1.20;;
74074;SDS011;62428;51.412;5.432;2023-02-28T08:07:04;2.20;;;1.10;;
74074;SDS011;62428;51.412;5.432;2023-02-28T08:09:29;4.23;;;1.40;;
74074;SDS011;62428;51.412;5.432;2023-02-28T08:11:55;2.90;;;0.80;;
74074;SDS011;62428;51.412;5.432;2023-02-28T08:14:20;4.07;;;1.35;;
74074;SDS011;62428;51.412;5.432;2023-02-28T08:16:46;3.10;;;0.93;;
74074;SDS011;62428;51.412;5.432;2023-02-28T08:19:11;2.53;;;0.97;;
74074;SDS011;62428;51.412;5.432;2023-02-28T08:21:36;1.73;;;1.00;;
74074;SDS011;62428;51.412;5.432;2023-02-28T08:24:02;2.97;;;0.90;;
74074;SDS011;62428;51.412;5.432;2023-02-28T08:26:27;3.07;;;0.70;;
74074;SDS011;62428;51.412;5.432;2023-02-28T08:28:52;2.03;;;0.80;;
74074;SDS011;62428;51.412;5.432;2023-02-28T08:31:18;2.83;;;1.05;;
74074;SDS011;62428;51.412;5.432;2023-02-28T08:33:44;2.63;;;0.83;;
74074;SDS011;62428;51.412;5.432;2023-02-28T08:36:10;4.82;;;1.08;;
74074;SDS011;62428;51.412;5.432;2023-02-28T08:38:35;2.33;;;0.90;;
74074;SDS011;62428;51.412;5.432;2023-02-28T08:41:02;3.20;;;1.10;;
74074;SDS011;62428;51.412;5.432;2023-02-28T08:43:32;3.30;;;1.05;;
74074;SDS011;62428;51.412;5.432;2023-02-28T08:45:58;2.42;;;0.85;;
74074;SDS011;62428;51.412;5.432;2023-02-28T08:48:24;2.73;;;0.50;;
74074;SDS011;62428;51.412;5.432;2023-02-28T08:53:23;5.20;;;1.00;;
74074;SDS011;62428;51.412;5.432;2023-02-28T08:55:55;1.40;;;0.65;;
74074;SDS011;62428;51.412;5.432;2023-02-28T08:58:24;1.63;;;0.67;;
74074;SDS011;62428;51.412;5.432;2023-02-28T09:00:50;2.97;;;0.93;;
74074;SDS011;62428;51.412;5.432;2023-02-28T09:03:16;2.38;;;0.93;;
74074;SDS011;62428;51.412;5.432;2023-02-28T09:05:51;4.20;;;1.08;;
74074;SDS011;62428;51.412;5.432;2023-02-28T09:08:26;2.55;;;0.73;;
74074;SDS011;62428;51.412;5.432;2023-02-28T09:10:53;4.18;;;1.02;;
74074;SDS011;62428;51.412;5.432;2023-02-28T09:13:19;2.70;;;0.77;;
74074;SDS011;62428;51.412;5.432;2023-02-28T09:15:45;2.10;;;0.73;;
74074;SDS011;62428;51.412;5.432;2023-02-28T09:18:10;1.90;;;0.60;;
74074;SDS011;62428;51.412;5.432;2023-02-28T09:20:40;1.40;;;0.53;;
74074;SDS011;62428;51.412;5.432;2023-02-28T09:23:06;2.35;;;0.80;;
74074;SDS011;62428;51.412;5.432;2023-02-28T09:25:33;2.47;;;0.70;;
74074;SDS011;62428;51.412;5.432;2023-02-28T09:27:59;1.88;;;0.60;;
74074;SDS011;62428;51.412;5.432;2023-02-28T09:30:24;1.50;;;0.57;;
74074;SDS011;62428;51.412;5.432;2023-02-28T09:32:50;1.60;;;0.47;;
74074;SDS011;62428;51.412;5.432;2023-02-28T09:35:19;0.90;;;0.40;;
74074;SDS011;62428;51.412;5.432;2023-02-28T09:37:48;4.60;;;0.82;;
74074;SDS011;62428;51.412;5.432;2023-02-28T09:40:16;3.03;;;0.53;;
74074;SDS011;62428;51.412;5.432;2023-02-28T09:42:43;1.20;;;0.60;;
74074;SDS011;62428;51.412;5.432;2023-02-28T09:45:31;1.45;;;0.57;;
74074;SDS011;62428;51.412;5.432;2023-02-28T09:48:21;1.77;;;0.52;;
74074;SDS011;62428;51.412;5.432;2023-02-28T09:50:55;1.92;;;0.57;;
74074;SDS011;62428;51.412;5.432;2023-02-28T09:53:26;1.20;;;0.50;;
74074;SDS011;62428;51.412;5.432;2023-02-28T09:55:59;3.03;;;0.75;;
74074;SDS011;62428;51.412;5.432;2023-02-28T10:04:08;1.55;;;0.60;;
74074;SDS011;62428;51.412;5.432;2023-02-28T10:06:43;1.33;;;0.60;;
74074;SDS011;62428;51.412;5.432;2023-02-28T10:09:15;1.98;;;0.85;;
74074;SDS011;62428;51.412;5.432;2023-02-28T10:11:47;0.68;;;0.30;;
74074;SDS011;62428;51.412;5.432;2023-02-28T10:14:16;0.85;;;0.50;;
74074;SDS011;62428;51.412;5.432;2023-02-28T10:16:55;2.00;;;0.80;;
74074;SDS011;62428;51.412;5.432;2023-02-28T10:22:08;1.77;;;0.43;;
74074;SDS011;62428;51.412;5.432;2023-02-28T10:24:39;1.40;;;0.52;;
74074;SDS011;62428;51.412;5.432;2023-02-28T10:27:14;1.58;;;0.60;;
74074;SDS011;62428;51.412;5.432;2023-02-28T10:29:47;1.13;;;0.50;;
74074;SDS011;62428;51.412;5.432;2023-02-28T10:32:19;1.27;;;0.40;;
74074;SDS011;62428;51.412;5.432;2023-02-28T10:37:26;1.92;;;0.60;;
74074;SDS011;62428;51.412;5.432;2023-02-28T10:39:52;5.13;;;0.82;;
74074;SDS011;62428;51.412;5.432;2023-02-28T10:42:22;1.83;;;0.60;;
74074;SDS011;62428;51.412;5.432;2023-02-28T10:44:57;2.08;;;0.52;;
74074;SDS011;62428;51.412;5.432;2023-02-28T10:47:30;0.68;;;0.35;;
74074;SDS011;62428;51.412;5.432;2023-02-28T10:49:58;2.00;;;0.60;;
74074;SDS011;62428;51.412;5.432;2023-02-28T10:52:36;1.80;;;0.80;;
74074;SDS011;62428;51.412;5.432;2023-02-28T10:55:24;1.60;;;0.70;;
74074;SDS011;62428;51.412;5.432;2023-02-28T10:57:51;1.08;;;0.40;;
74074;SDS011;62428;51.412;5.432;2023-02-28T11:00:19;0.90;;;0.40;;
74074;SDS011;62428;51.412;5.432;2023-02-28T11:02:46;1.03;;;0.50;;
74074;SDS011;62428;51.412;5.432;2023-02-28T11:05:31;1.20;;;0.45;;
74074;SDS011;62428;51.412;5.432;2023-02-28T11:08:19;1.75;;;0.60;;
74074;SDS011;62428;51.412;5.432;2023-02-28T11:10:45;2.22;;;0.50;;
74074;SDS011;62428;51.412;5.432;2023-02-28T11:13:19;1.55;;;0.60;;
74074;SDS011;62428;51.412;5.432;2023-02-28T11:15:51;3.33;;;0.70;;
74074;SDS011;62428;51.412;5.432;2023-02-28T11:18:27;1.50;;;0.50;;
74074;SDS011;62428;51.412;5.432;2023-02-28T11:20:54;1.58;;;0.50;;
74074;SDS011;62428;51.412;5.432;2023-02-28T11:23:22;2.45;;;0.80;;
74074;SDS011;62428;51.412;5.432;2023-02-28T11:25:51;0.80;;;0.38;;
74074;SDS011;62428;51.412;5.432;2023-02-28T11:31:00;4.10;;;0.65;;
74074;SDS011;62428;51.412;5.432;2023-02-28T11:34:10;2.85;;;0.50;;
74074;SDS011;62428;51.412;5.432;2023-02-28T11:38:49;1.55;;;0.68;;
74074;SDS011;62428;51.412;5.432;2023-02-28T11:44:11;1.00;;;0.40;;
74074;SDS011;62428;51.412;5.432;2023-02-28T11:46:50;2.13;;;0.55;;
74074;SDS011;62428;51.412;5.432;2023-02-28T11:49:28;2.35;;;0.73;;
74074;SDS011;62428;51.412;5.432;2023-02-28T12:06:18;2.05;;;0.90;;
74074;SDS011;62428;51.412;5.432;2023-02-28T12:11:48;2.30;;;0.70;;
74074;SDS011;62428;51.412;5.432;2023-02-28T12:19:39;1.42;;;0.95;;
74074;SDS011;62428;51.412;5.432;2023-02-28T12:24:59;2.22;;;0.70;;
74074;SDS011;62428;51.412;5.432;2023-02-28T12:27:43;2.10;;;0.90;;
74074;SDS011;62428;51.412;5.432;2023-02-28T12:30:22;1.63;;;0.80;;
74074;SDS011;62428;51.412;5.432;2023-02-28T12:33:12;1.70;;;0.95;;
74074;SDS011;62428;51.412;5.432;2023-02-28T12:35:57;2.40;;;0.90;;
74074;SDS011;62428;51.412;5.432;2023-02-28T12:38:26;2.95;;;1.17;;
74074;SDS011;62428;51.412;5.432;2023-02-28T12:41:00;3.38;;;1.00;;
74074;SDS011;62428;51.412;5.432;2023-02-28T12:43:32;3.67;;;1.15;;
74074;SDS011;62428;51.412;5.432;2023-02-28T12:46:03;1.17;;;0.68;;
74074;SDS011;62428;51.412;5.432;2023-02-28T12:51:13;2.83;;;0.88;;
74074;SDS011;62428;51.412;5.432;2023-02-28T12:53:58;3.10;;;0.90;;
74074;SDS011;62428;51.412;5.432;2023-02-28T12:56:33;1.30;;;0.63;;
74074;SDS011;62428;51.412;5.432;2023-02-28T12:59:10;1.75;;;0.88;;
74074;SDS011;62428;51.412;5.432;2023-02-28T13:02:00;1.83;;;0.80;;
74074;SDS011;62428;51.412;5.432;2023-02-28T13:04:40;7.47;;;1.00;;
74074;SDS011;62428;51.412;5.432;2023-02-28T13:09:55;2.10;;;0.60;;
74074;SDS011;62428;51.412;5.432;2023-02-28T13:12:22;1.50;;;0.90;;
74074;SDS011;62428;51.412;5.432;2023-02-28T13:14:49;3.23;;;0.80;;
74074;SDS011;62428;51.412;5.432;2023-02-28T13:17:19;1.73;;;0.77;;
74074;SDS011;62428;51.412;5.432;2023-02-28T13:19:55;2.00;;;1.02;;
74074;SDS011;62428;51.412;5.432;2023-02-28T13:27:46;2.27;;;0.93;;
74074;SDS011;62428;51.412;5.432;2023-02-28T13:36:36;1.90;;;0.98;;
74074;SDS011;62428;51.412;5.432;2023-02-28T13:38:47;2.50;;;0.80;;
74074;SDS011;62428;51.412;5.432;2023-02-28T13:49:18;3.65;;;0.73;;
74074;SDS011;62428;51.412;5.432;2023-02-28T14:02:43;1.88;;;0.90;;
74074;SDS011;62428;51.412;5.432;2023-02-28T14:05:32;2.28;;;1.10;;
74074;SDS011;62428;51.412;5.432;2023-02-28T14:07:59;2.87;;;1.10;;
74074;SDS011;62428;51.412;5.432;2023-02-28T14:10:31;1.23;;;0.80;;
74074;SDS011;62428;51.412;5.432;2023-02-28T14:15:40;2.20;;;1.20;;
74074;SDS011;62428;51.412;5.432;2023-02-28T14:20:42;2.43;;;1.13;;
74074;SDS011;62428;51.412;5.432;2023-02-28T14:26:19;2.50;;;1.30;;
74074;SDS011;62428;51.412;5.432;2023-02-28T14:28:52;2.55;;;1.00;;
74074;SDS011;62428;51.412;5.432;2023-02-28T14:31:28;2.63;;;1.20;;
74074;SDS011;62428;51.412;5.432;2023-02-28T14:34:13;2.00;;;1.00;;
74074;SDS011;62428;51.412;5.432;2023-02-28T14:36:50;1.60;;;1.20;;
74074;SDS011;62428;51.412;5.432;2023-02-28T14:39:22;2.40;;;1.20;;
74074;SDS011;62428;51.412;5.432;2023-02-28T14:41:50;2.90;;;1.50;;
74074;SDS011;62428;51.412;5.432;2023-02-28T14:44:22;4.03;;;1.60;;
74074;SDS011;62428;51.412;5.432;2023-02-28T14:46:50;2.55;;;1.20;;
74074;SDS011;62428;51.412;5.432;2023-02-28T14:49:26;2.60;;;1.23;;
74074;SDS011;62428;51.412;5.432;2023-02-28T14:52:02;2.75;;;1.30;;
74074;SDS011;62428;51.412;5.432;2023-02-28T14:54:36;3.03;;;1.30;;
74074;SDS011;62428;51.412;5.432;2023-02-28T14:57:03;2.90;;;1.42;;
74074;SDS011;62428;51.412;5.432;2023-02-28T14:59:29;2.15;;;1.30;;
74074;SDS011;62428;51.412;5.432;2023-02-28T15:02:19;2.40;;;1.52;;
74074;SDS011;62428;51.412;5.432;2023-02-28T15:08:00;3.75;;;1.40;;
74074;SDS011;62428;51.412;5.432;2023-02-28T15:10:28;2.05;;;1.40;;
74074;SDS011;62428;51.412;5.432;2023-02-28T15:13:00;3.80;;;1.30;;
74074;SDS011;62428;51.412;5.432;2023-02-28T15:21:13;2.40;;;1.20;;
74074;SDS011;62428;51.412;5.432;2023-02-28T15:23:42;6.43;;;1.30;;
74074;SDS011;62428;51.412;5.432;2023-02-28T15:26:19;2.90;;;1.33;;
74074;SDS011;62428;51.412;5.432;2023-02-28T15:28:48;2.15;;;1.55;;
74074;SDS011;62428;51.412;5.432;2023-02-28T15:31:29;2.92;;;1.38;;
74074;SDS011;62428;51.412;5.432;2023-02-28T15:34:02;2.40;;;1.17;;
74074;SDS011;62428;51.412;5.432;2023-02-28T15:36:30;2.38;;;1.25;;
74074;SDS011;62428;51.412;5.432;2023-02-28T15:38:58;2.63;;;1.17;;
74074;SDS011;62428;51.412;5.432;2023-02-28T15:43:57;1.40;;;0.80;;
74074;SDS011;62428;51.412;5.432;2023-02-28T15:49:29;2.47;;;1.13;;
74074;SDS011;62428;51.412;5.432;2023-02-28T15:52:03;2.58;;;0.85;;
74074;SDS011;62428;51.412;5.432;2023-02-28T15:54:30;1.98;;;1.10;;
74074;SDS011;62428;51.412;5.432;2023-02-28T15:57:05;4.07;;;1.35;;
74074;SDS011;62428;51.412;5.432;2023-02-28T15:59:35;3.60;;;1.25;;
74074;SDS011;62428;51.412;5.432;2023-02-28T16:02:03;2.67;;;1.23;;
74074;SDS011;62428;51.412;5.432;2023-02-28T16:04:35;2.78;;;1.38;;
74074;SDS011;62428;51.412;5.432;2023-02-28T16:07:03;2.03;;;1.20;;
74074;SDS011;62428;51.412;5.432;2023-02-28T16:09:30;2.83;;;1.25;;
74074;SDS011;62428;51.412;5.432;2023-02-28T16:11:56;2.63;;;1.33;;
74074;SDS011;62428;51.412;5.432;2023-02-28T16:14:26;4.03;;;1.30;;
74074;SDS011;62428;51.412;5.432;2023-02-28T16:16:56;3.05;;;1.27;;
74074;SDS011;62428;51.412;5.432;2023-02-28T16:19:27;2.00;;;1.13;;
74074;SDS011;62428;51.412;5.432;2023-02-28T16:21:52;2.30;;;1.30;;
74074;SDS011;62428;51.412;5.432;2023-02-28T16:24:17;2.23;;;1.20;;
74074;SDS011;62428;51.412;5.432;2023-02-28T16:26:45;2.27;;;1.20;;
74074;SDS011;62428;51.412;5.432;2023-02-28T16:29:17;3.42;;;1.13;;
74074;SDS011;62428;51.412;5.432;2023-02-28T16:31:49;3.28;;;1.17;;
74074;SDS011;62428;51.412;5.432;2023-02-28T16:34:14;3.47;;;1.30;;
74074;SDS011;62428;51.412;5.432;2023-02-28T16:36:40;2.30;;;1.20;;
74074;SDS011;62428;51.412;5.432;2023-02-28T16:39:06;2.15;;;1.20;;
74074;SDS011;62428;51.412;5.432;2023-02-28T16:41:31;2.90;;;1.30;;
74074;SDS011;62428;51.412;5.432;2023-02-28T16:43:56;3.10;;;1.30;;
74074;SDS011;62428;51.412;5.432;2023-02-28T16:46:27;3.65;;;1.40;;
74074;SDS011;62428;51.412;5.432;2023-02-28T16:48:58;2.40;;;1.20;;
74074;SDS011;62428;51.412;5.432;2023-02-28T16:51:23;2.37;;;1.23;;
74074;SDS011;62428;51.412;5.432;2023-02-28T16:53:48;2.80;;;1.23;;
74074;SDS011;62428;51.412;5.432;2023-02-28T16:56:17;3.13;;;1.30;;
74074;SDS011;62428;51.412;5.432;2023-02-28T16:58:45;3.28;;;1.35;;
74074;SDS011;62428;51.412;5.432;2023-02-28T17:01:11;2.38;;;1.10;;
74074;SDS011;62428;51.412;5.432;2023-02-28T17:03:37;4.10;;;1.40;;
74074;SDS011;62428;51.412;5.432;2023-02-28T17:06:02;4.53;;;2.37;;
74074;SDS011;62428;51.412;5.432;2023-02-28T17:08:29;6.05;;;2.85;;
74074;SDS011;62428;51.412;5.432;2023-02-28T17:10:56;5.80;;;2.35;;
74074;SDS011;62428;51.412;5.432;2023-02-28T17:13:22;3.80;;;2.20;;